createdAt,value
2022-08-27T00:00:41.716Z,99578.05
2022-08-27T00:01:44.605Z,99581.67
2022-08-27T00:02:46.956Z,99576.38
2022-08-27T00:03:49.375Z,99586.97
2022-08-27T00:04:51.671Z,99574.71
2022-08-27T00:05:53.831Z,99573.19
2022-08-27T00:06:56.610Z,99573.03
2022-08-27T00:08:01.006Z,99573.44
2022-08-27T00:09:04.123Z,99576.38
2022-08-27T00:10:08.998Z,99574.71
2022-08-27T00:11:13.225Z,99576.11
2022-08-27T00:12:15.358Z,99577.78
2022-08-27T00:13:17.538Z,99579.47
2022-08-27T00:14:20.006Z,99580.29
2022-08-27T00:15:23.177Z,99579.47
2022-08-27T00:16:26.142Z,99579.47
2022-08-27T00:17:31.488Z,99583.08
2022-08-27T00:18:35.946Z,99578.34
2022-08-27T00:19:40.246Z,99583.38
2022-08-27T00:20:42.465Z,99588.66
2022-08-27T00:21:44.824Z,99586.69
2022-08-27T00:22:47.297Z,99584.34
2022-08-27T00:23:49.558Z,99585.46
2022-08-27T00:24:51.818Z,99576.55
2022-08-27T00:25:54.016Z,99582.52
2022-08-27T00:26:57.053Z,99579.73
2022-08-27T00:27:59.316Z,99576.98
2022-08-27T00:29:01.881Z,99583.08
2022-08-27T00:30:07.631Z,99572.66
2022-08-27T00:31:12.158Z,99574.45
2022-08-27T00:32:15.877Z,99573.36
2022-08-27T00:33:18.199Z,99574.05
2022-08-27T00:34:22.176Z,99580.19
2022-08-27T00:35:25.628Z,99584.77
2022-08-27T00:36:28.107Z,99587.27
2022-08-27T00:37:30.096Z,99583.66
2022-08-27T00:38:32.367Z,99587.12
2022-08-27T00:39:35.731Z,99583.38
2022-08-27T00:40:38.055Z,99578.91
2022-08-27T00:41:41.066Z,99579.90
2022-08-27T00:42:43.222Z,99575.31
2022-08-27T00:43:48.976Z,99585.59
2022-08-27T00:44:51.393Z,99585.33
2022-08-27T00:45:57.215Z,99589.77
2022-08-27T00:47:03.289Z,99582.53
2022-08-27T00:48:07.943Z,99587.00
2022-08-27T00:49:33.543Z,99585.59
2022-08-27T00:50:46.512Z,99587.56
2022-08-27T00:52:04.303Z,99582.55
2022-08-27T00:53:10.635Z,99583.52
2022-08-27T00:54:18.763Z,99590.63
2022-08-27T00:56:33.662Z,99574.05
2022-08-27T00:57:38.631Z,99587.58
2022-08-27T01:00:03.411Z,99581.42
2022-08-27T01:01:09.673Z,99572.80
2022-08-27T01:02:12.780Z,99577.81
2022-08-27T01:03:15.412Z,99577.55
2022-08-27T01:04:17.572Z,99577.81
2022-08-27T01:05:23.121Z,99583.92
2022-08-27T01:06:32.026Z,99582.14
2022-08-27T01:07:37.868Z,99581.17
2022-08-27T01:08:43.613Z,99575.03
2022-08-27T01:09:47.919Z,99579.49
2022-08-27T01:10:56.984Z,99574.20
2022-08-27T01:11:59.904Z,99574.47
2022-08-27T01:13:02.285Z,99576.45
2022-08-27T01:14:06.486Z,99576.45
2022-08-27T01:15:14.126Z,99579.76
2022-08-27T01:16:20.373Z,99583.11
2022-08-27T01:17:22.819Z,99580.47
2022-08-27T01:19:54.094Z,99581.41
2022-08-27T01:21:09.197Z,99581.84
2022-08-27T01:22:19.140Z,99578.52
2022-08-27T01:23:40.436Z,99592.30
2022-08-27T01:24:45.826Z,99584.22
2022-08-27T01:25:49.054Z,99586.86
2022-08-27T01:26:52.129Z,99581.72
2022-08-27T01:27:57.878Z,99582.84
2022-08-27T01:29:01.353Z,99586.14
2022-08-27T01:30:07.022Z,99586.95
2022-08-27T01:31:12.351Z,99586.95
2022-08-27T01:32:18.259Z,99590.30
2022-08-27T01:33:21.253Z,99592.95
2022-08-27T01:34:23.514Z,99593.66
2022-08-27T01:35:26.182Z,99594.36
2022-08-27T01:36:29.677Z,99588.08
2022-08-27T01:37:33.054Z,99585.58
2022-08-27T01:39:57.963Z,99589.75
2022-08-27T01:41:01.963Z,99597.27
2022-08-27T01:42:07.858Z,99589.59
2022-08-27T01:43:10.672Z,99592.95
2022-08-27T01:44:12.924Z,99591.83
2022-08-27T01:45:21.478Z,99586.12
2022-08-27T01:46:27.766Z,99592.53
2022-08-27T01:47:31.433Z,99596.96
2022-08-27T01:48:33.949Z,99595.31
2022-08-27T01:49:36.104Z,99589.03
2022-08-27T01:50:40.714Z,99584.45
2022-08-27T01:51:42.887Z,99588.77
2022-08-27T01:52:45.136Z,99582.52
2022-08-27T01:53:47.916Z,99586.36
2022-08-27T01:54:50.477Z,99590.27
2022-08-27T01:55:54.989Z,99584.58
2022-08-27T01:56:57.558Z,99584.17
2022-08-27T01:58:01.662Z,99591.55
2022-08-27T01:59:03.837Z,99583.19
2022-08-27T02:00:10.083Z,99588.06
2022-08-27T02:01:15.444Z,99583.07
2022-08-27T02:02:18.277Z,99586.12
2022-08-27T02:03:21.046Z,99578.91
2022-08-27T02:04:23.723Z,99588.63
2022-08-27T02:05:27.104Z,99581.55
2022-08-27T02:06:29.883Z,99577.65
2022-08-27T02:07:32.144Z,99582.78
2022-08-27T02:08:34.909Z,99572.09
2022-08-27T02:09:37.364Z,99579.47
2022-08-27T02:10:40.251Z,99579.47
2022-08-27T02:11:44.981Z,99576.26
2022-08-27T02:12:46.706Z,99578.75
2022-08-27T02:13:48.593Z,99575.41
2022-08-27T02:14:50.714Z,99579.72
2022-08-27T02:15:53.126Z,99573.47
2022-08-27T02:16:56.047Z,99581.95
2022-08-27T02:17:58.210Z,99575.70
2022-08-27T02:19:01.291Z,99575.82
2022-08-27T02:20:06.166Z,99573.06
2022-08-27T02:21:08.467Z,99577.23
2022-08-27T02:22:10.637Z,99575.82
2022-08-27T02:23:14.214Z,99578.75
2022-08-27T02:24:16.584Z,99569.14
2022-08-27T02:25:19.861Z,99569.14
2022-08-27T02:26:23.355Z,99578.34
2022-08-27T02:27:25.609Z,99579.98
2022-08-27T02:28:27.765Z,99579.02
2022-08-27T02:29:30.257Z,99578.34
2022-08-27T02:30:33.943Z,99572.05
2022-08-27T02:31:36.319Z,99568.33
2022-08-27T02:32:39.178Z,99578.83
2022-08-27T02:33:41.424Z,99572.58
2022-08-27T02:34:46.548Z,99576.89
2022-08-27T02:35:48.771Z,99572.58
2022-08-27T02:36:51.070Z,99568.81
2022-08-27T02:37:53.323Z,99567.13
2022-08-27T02:38:55.790Z,99575.77
2022-08-27T02:39:58.110Z,99567.98
2022-08-27T02:41:00.514Z,99569.64
2022-08-27T02:42:03.290Z,99568.38
2022-08-27T02:43:06.063Z,99567.42
2022-08-27T02:44:10.393Z,99570.77
2022-08-27T02:45:14.670Z,99571.34
2022-08-27T02:46:17.890Z,99566.31
2022-08-27T02:47:20.126Z,99566.87
2022-08-27T02:48:23.429Z,99570.64
2022-08-27T02:49:25.773Z,99578.28
2022-08-27T02:50:28.220Z,99566.63
2022-08-27T02:51:30.280Z,99569.84
2022-08-27T02:52:32.454Z,99571.23
2022-08-27T02:53:36.547Z,99573.61
2022-08-27T02:54:38.805Z,99569.42
2022-08-27T02:55:41.377Z,99575.82
2022-08-27T02:56:43.842Z,99574.73
2022-08-27T02:57:46.093Z,99569.31
2022-08-27T02:58:48.762Z,99574.59
2022-08-27T02:59:52.453Z,99579.47
2022-08-27T03:00:54.923Z,99570.83
2022-08-27T03:01:57.238Z,99567.06
2022-08-27T03:03:01.053Z,99573.06
2022-08-27T03:04:03.846Z,99565.23
2022-08-27T03:05:07.332Z,99571.21
2022-08-27T03:06:10.727Z,99564.66
2022-08-27T03:07:19.037Z,99560.48
2022-08-27T03:08:18.214Z,99566.33
2022-08-27T03:09:20.777Z,99561.47
2022-08-27T03:10:23.545Z,99559.68
2022-08-27T03:11:25.716Z,99566.34
2022-08-27T03:12:27.976Z,99568.84
2022-08-27T03:13:30.129Z,99566.09
2022-08-27T03:14:32.799Z,99566.36
2022-08-27T03:15:35.355Z,99566.77
2022-08-27T03:16:38.551Z,99569.16
2022-08-27T03:17:41.215Z,99565.55
2022-08-27T03:18:44.955Z,99562.61
2022-08-27T03:19:47.378Z,99570.27
2022-08-27T03:20:52.901Z,99568.59
2022-08-27T03:21:55.104Z,99562.75
2022-08-27T03:22:57.232Z,99573.06
2022-08-27T03:24:00.293Z,99564.42
2022-08-27T03:25:05.831Z,99564.42
2022-08-27T03:26:11.900Z,99566.36
2022-08-27T03:27:14.156Z,99563.04
2022-08-27T03:28:23.340Z,99560.09
2022-08-27T03:29:21.632Z,99554.36
2022-08-27T03:30:26.252Z,99558.22
2022-08-27T03:31:28.560Z,99553.17
2022-08-27T03:32:30.967Z,99553.17
2022-08-27T03:33:37.682Z,99552.66
2022-08-27T03:34:40.010Z,99558.34
2022-08-27T03:35:42.162Z,99561.55
2022-08-27T03:36:44.716Z,99553.34
2022-08-27T03:37:48.817Z,99567.08
2022-08-27T03:38:51.389Z,99560.13
2022-08-27T03:39:53.575Z,99560.98
2022-08-27T03:40:56.117Z,99555.70
2022-08-27T03:41:58.183Z,99554.34
2022-08-27T03:43:00.443Z,99557.41
2022-08-27T03:44:03.306Z,99562.28
2022-08-27T03:45:07.243Z,99562.14
2022-08-27T03:46:10.684Z,99558.39
2022-08-27T03:47:14.282Z,99562.56
2022-08-27T03:48:17.559Z,99563.92
2022-08-27T03:49:22.485Z,99563.81
2022-08-27T03:50:25.767Z,99561.28
2022-08-27T03:51:27.821Z,99561.01
2022-08-27T03:52:31.004Z,99559.16
2022-08-27T03:53:33.975Z,99552.91
2022-08-27T03:54:39.238Z,99550.70
2022-08-27T03:55:41.684Z,99559.62
2022-08-27T03:56:44.553Z,99553.09
2022-08-27T03:57:47.431Z,99557.11
2022-08-27T03:58:49.784Z,99553.11
2022-08-27T03:59:54.241Z,99542.97
2022-08-27T04:00:56.037Z,99550.33
2022-08-27T04:01:58.321Z,99549.36
2022-08-27T04:03:03.573Z,99542.41
2022-08-27T04:04:05.760Z,99545.75
2022-08-27T04:05:10.624Z,99549.92
2022-08-27T04:06:13.366Z,99553.53
2022-08-27T04:07:15.559Z,99544.08
2022-08-27T04:08:17.860Z,99546.86
2022-08-27T04:09:20.480Z,99546.72
2022-08-27T04:10:23.043Z,99549.77
2022-08-27T04:11:25.295Z,99550.21
2022-08-27T04:12:28.424Z,99546.17
2022-08-27T04:13:31.147Z,99549.09
2022-08-27T04:14:33.808Z,99550.48
2022-08-27T04:15:40.470Z,99547.13
2022-08-27T04:16:40.995Z,99543.53
2022-08-27T04:17:43.257Z,99543.81
2022-08-27T04:18:45.522Z,99544.37
2022-08-27T04:19:47.674Z,99543.95
2022-08-27T04:20:51.057Z,99545.20
2022-08-27T04:21:53.730Z,99547.30
2022-08-27T04:22:56.904Z,99549.11
2022-08-27T04:23:59.378Z,99547.59
2022-08-27T04:25:03.355Z,99544.39
2022-08-27T04:26:10.690Z,99551.35
2022-08-27T04:27:13.031Z,99546.88
2022-08-27T04:28:16.310Z,99545.77
2022-08-27T04:29:18.563Z,99548.00
2022-08-27T04:30:21.792Z,99547.84
2022-08-27T04:31:25.429Z,99544.39
2022-08-27T04:32:29.164Z,99545.77
2022-08-27T04:33:31.907Z,99545.77
2022-08-27T04:34:34.158Z,99545.62
2022-08-27T04:35:36.515Z,99541.05
2022-08-27T04:36:38.776Z,99537.14
2022-08-27T04:37:40.929Z,99532.98
2022-08-27T04:38:43.809Z,99538.66
2022-08-27T04:39:50.166Z,99539.79
2022-08-27T04:40:50.275Z,99532.16
2022-08-27T04:41:54.474Z,99541.46
2022-08-27T04:42:56.648Z,99539.79
2022-08-27T04:44:07.863Z,99533.12
2022-08-27T04:45:10.792Z,99537.86
2022-08-27T04:46:13.420Z,99531.04
2022-08-27T04:47:15.816Z,99530.78
2022-08-27T04:48:18.478Z,99535.21
2022-08-27T04:49:20.847Z,99531.34
2022-08-27T04:50:23.516Z,99528.41
2022-08-27T04:51:29.185Z,99523.83
2022-08-27T04:52:31.715Z,99528.55
2022-08-27T04:53:34.692Z,99523.98
2022-08-27T04:54:36.759Z,99531.20
2022-08-27T04:55:51.401Z,99528.27
2022-08-27T04:56:54.579Z,99519.78
2022-08-27T04:57:56.853Z,99522.15
2022-08-27T04:59:01.044Z,99533.12
2022-08-27T05:00:03.937Z,99530.22
2022-08-27T05:01:06.283Z,99536.74
2022-08-27T05:02:08.846Z,99530.64
2022-08-27T05:03:11.315Z,99530.23
2022-08-27T05:04:16.140Z,99533.28
2022-08-27T05:05:18.849Z,99533.69
2022-08-27T05:06:23.114Z,99535.77
2022-08-27T05:07:25.478Z,99533.30
2022-08-27T05:08:28.030Z,99541.20
2022-08-27T05:09:30.746Z,99539.67
2022-08-27T05:10:42.388Z,99536.60
2022-08-27T05:11:44.858Z,99534.66
2022-08-27T05:12:50.041Z,99543.81
2022-08-27T05:13:52.549Z,99542.57
2022-08-27T05:14:54.714Z,99537.28
2022-08-27T05:16:00.123Z,99545.48
2022-08-27T05:17:02.392Z,99548.13
2022-08-27T05:18:07.287Z,99544.81
2022-08-27T05:19:11.734Z,99546.77
2022-08-27T05:20:14.197Z,99540.50
2022-08-27T05:21:22.799Z,99540.50
2022-08-27T05:22:25.573Z,99542.17
2022-08-27T05:23:30.087Z,99543.97
2022-08-27T05:24:32.258Z,99552.05
2022-08-27T05:25:40.575Z,99550.53
2022-08-27T05:26:43.539Z,99548.30
2022-08-27T05:27:46.197Z,99548.02
2022-08-27T05:28:48.683Z,99545.26
2022-08-27T05:29:51.341Z,99546.78
2022-08-27T05:30:57.077Z,99542.05
2022-08-27T05:31:59.282Z,99541.07
2022-08-27T05:33:01.380Z,99539.25
2022-08-27T05:34:03.674Z,99543.42
2022-08-27T05:35:10.366Z,99538.83
2022-08-27T05:37:32.800Z,99541.84
2022-08-27T05:38:35.409Z,99543.81
2022-08-27T05:39:38.384Z,99543.81
2022-08-27T05:40:41.782Z,99535.21
2022-08-27T05:41:44.129Z,99525.45
2022-08-27T05:42:46.515Z,99538.83
2022-08-27T05:43:51.718Z,99529.92
2022-08-27T05:44:53.880Z,99526.97
2022-08-27T05:45:56.512Z,99534.33
2022-08-27T05:46:58.812Z,99529.34
2022-08-27T05:48:01.588Z,99534.64
2022-08-27T05:49:03.849Z,99530.31
2022-08-27T05:50:07.133Z,99525.84
2022-08-27T05:51:13.584Z,99525.73
2022-08-27T05:52:17.992Z,99535.78
2022-08-27T05:53:20.662Z,99532.44
2022-08-27T05:54:22.736Z,99533.26
2022-08-27T05:55:24.874Z,99538.42
2022-08-27T05:56:29.647Z,99537.42
2022-08-27T05:57:31.961Z,99535.48
2022-08-27T05:58:34.159Z,99537.97
2022-08-27T05:59:37.128Z,99526.30
2022-08-27T06:00:39.678Z,99534.09
2022-08-27T06:01:45.566Z,99525.73
2022-08-27T06:02:47.921Z,99521.96
2022-08-27T06:03:51.249Z,99517.25
2022-08-27T06:04:54.698Z,99526.30
2022-08-27T06:06:02.710Z,99524.63
2022-08-27T06:07:07.035Z,99530.74
2022-08-27T06:08:09.512Z,99529.22
2022-08-27T06:09:15.442Z,99531.05
2022-08-27T06:10:17.913Z,99525.19
2022-08-27T06:11:20.686Z,99525.58
2022-08-27T06:12:27.104Z,99522.50
2022-08-27T06:13:32.275Z,99517.61
2022-08-27T06:14:36.061Z,99518.98
2022-08-27T06:15:38.363Z,99526.64
2022-08-27T06:16:41.320Z,99523.99
2022-08-27T06:17:43.563Z,99519.41
2022-08-27T06:18:47.879Z,99523.41
2022-08-27T06:19:50.228Z,99527.03
2022-08-27T06:20:52.901Z,99529.83
2022-08-27T06:22:00.139Z,99534.54
2022-08-27T06:23:00.594Z,99530.88
2022-08-27T06:24:03.280Z,99532.97
2022-08-27T06:25:06.028Z,99530.59
2022-08-27T06:26:11.874Z,99527.63
2022-08-27T06:27:17.870Z,99522.10
2022-08-27T06:28:22.085Z,99529.63
2022-08-27T06:29:24.386Z,99526.28
2022-08-27T06:30:27.672Z,99524.33
2022-08-27T06:31:31.932Z,99521.41
2022-08-27T06:32:34.242Z,99521.25
2022-08-27T06:33:37.929Z,99526.27
2022-08-27T06:34:41.321Z,99523.08
2022-08-27T06:35:44.701Z,99529.73
2022-08-27T06:36:47.270Z,99524.75
2022-08-27T06:37:49.427Z,99529.03
2022-08-27T06:38:52.307Z,99529.73
2022-08-27T06:39:54.629Z,99521.80
2022-08-27T06:40:57.244Z,99523.31
2022-08-27T06:41:59.585Z,99528.61
2022-08-27T06:43:03.905Z,99526.94
2022-08-27T06:44:06.570Z,99520.97
2022-08-27T06:45:10.489Z,99515.25
2022-08-27T06:46:17.498Z,99517.47
2022-08-27T06:47:21.301Z,99515.80
2022-08-27T06:48:24.208Z,99511.52
2022-08-27T06:49:26.370Z,99514.16
2022-08-27T06:50:30.790Z,99508.55
2022-08-27T06:51:35.593Z,99513.85
2022-08-27T06:52:37.858Z,99513.57
2022-08-27T06:53:40.939Z,99517.63
2022-08-27T06:54:43.204Z,99509.69
2022-08-27T06:55:48.328Z,99514.83
2022-08-27T06:56:50.896Z,99510.77
2022-08-27T06:57:53.153Z,99512.13
2022-08-27T06:58:57.763Z,99516.06
2022-08-27T07:00:00.029Z,99513.27
2022-08-27T07:01:05.804Z,99509.36
2022-08-27T07:02:07.997Z,99507.09
2022-08-27T07:03:12.433Z,99506.34
2022-08-27T07:04:18.211Z,99507.56
2022-08-27T07:05:20.295Z,99508.10
2022-08-27T07:06:23.212Z,99501.67
2022-08-27T07:07:32.557Z,99501.67
2022-08-27T07:08:29.883Z,99505.67
2022-08-27T07:09:33.776Z,99510.23
2022-08-27T07:10:36.751Z,99506.30
2022-08-27T07:11:39.005Z,99507.67
2022-08-27T07:12:41.065Z,99499.73
2022-08-27T07:13:45.730Z,99500.92
2022-08-27T07:14:48.660Z,99496.68
2022-08-27T07:15:52.575Z,99495.70
2022-08-27T07:16:55.340Z,99509.27
2022-08-27T07:17:58.918Z,99503.65
2022-08-27T07:19:05.993Z,99510.45
2022-08-27T07:21:11.940Z,99499.04
2022-08-27T07:22:14.301Z,99502.06
2022-08-27T07:23:16.462Z,99507.06
2022-08-27T07:24:18.723Z,99505.61
2022-08-27T07:25:20.880Z,99503.08
2022-08-27T07:26:25.642Z,99509.43
2022-08-27T07:27:27.860Z,99513.83
2022-08-27T07:28:30.527Z,99512.52
2022-08-27T07:29:32.892Z,99516.06
2022-08-27T07:30:36.305Z,99507.66
2022-08-27T07:31:39.044Z,99512.66
2022-08-27T07:32:45.599Z,99515.67
2022-08-27T07:33:51.517Z,99521.34
2022-08-27T07:34:52.685Z,99515.73
2022-08-27T07:35:54.949Z,99521.56
2022-08-27T07:36:57.506Z,99516.78
2022-08-27T07:37:59.665Z,99523.07
2022-08-27T07:39:02.687Z,99520.42
2022-08-27T07:40:08.098Z,99520.61
2022-08-27T07:41:12.798Z,99519.49
2022-08-27T07:42:15.363Z,99520.83
2022-08-27T07:43:18.340Z,99515.20
2022-08-27T07:44:20.601Z,99521.05
2022-08-27T07:45:22.969Z,99516.27
2022-08-27T07:46:26.420Z,99515.66
2022-08-27T07:47:28.803Z,99517.82
2022-08-27T07:48:31.387Z,99515.84
2022-08-27T07:49:34.421Z,99516.36
2022-08-27T07:50:37.657Z,99507.08
2022-08-27T07:51:40.543Z,99510.12
2022-08-27T07:52:42.881Z,99510.77
2022-08-27T07:53:46.276Z,99510.46
2022-08-27T07:54:49.241Z,99502.16
2022-08-27T07:55:52.117Z,99512.78
2022-08-27T07:56:56.149Z,99502.67
2022-08-27T07:57:58.686Z,99506.52
2022-08-27T07:59:01.752Z,99502.88
2022-08-27T08:00:06.950Z,99505.37
2022-08-27T08:01:11.045Z,99505.70
2022-08-27T08:02:13.820Z,99506.22
2022-08-27T08:03:16.323Z,99507.55
2022-08-27T08:04:20.396Z,99506.73
2022-08-27T08:05:22.392Z,99510.55
2022-08-27T08:06:26.923Z,99508.26
2022-08-27T08:07:29.564Z,99506.25
2022-08-27T08:08:34.905Z,99512.92
2022-08-27T08:09:38.599Z,99506.45
2022-08-27T08:10:42.425Z,99515.95
2022-08-27T08:11:45.360Z,99507.64
2022-08-27T08:12:48.149Z,99504.84
2022-08-27T08:13:51.527Z,99501.02
2022-08-27T08:14:54.521Z,99505.99
2022-08-27T08:15:57.993Z,99503.00
2022-08-27T08:17:02.295Z,99500.54
2022-08-27T08:18:05.269Z,99495.07
2022-08-27T08:19:07.758Z,99504.38
2022-08-27T08:20:27.472Z,99502.38
2022-08-27T08:21:16.675Z,99501.08
2022-08-27T08:22:20.034Z,99492.76
2022-08-27T08:23:21.988Z,99500.09
2022-08-27T08:24:24.143Z,99496.94
2022-08-27T08:25:26.411Z,99496.58
2022-08-27T08:26:29.426Z,99486.74
2022-08-27T08:27:32.258Z,99487.23
2022-08-27T08:28:35.172Z,99487.53
2022-08-27T08:29:37.727Z,99487.17
2022-08-27T08:30:42.445Z,99488.00
2022-08-27T08:31:44.989Z,99478.30
2022-08-27T08:32:49.080Z,99484.89
2022-08-27T08:33:51.140Z,99479.86
2022-08-27T08:34:53.602Z,99479.20
2022-08-27T08:36:04.633Z,99487.85
2022-08-27T08:37:07.867Z,99484.67
2022-08-27T08:38:10.308Z,99477.16
2022-08-27T08:39:12.629Z,99483.48
2022-08-27T08:40:25.364Z,99482.78
2022-08-27T08:41:46.083Z,99482.08
2022-08-27T08:42:54.438Z,99484.51
2022-08-27T08:44:01.086Z,99480.55
2022-08-27T08:45:05.751Z,99472.03
2022-08-27T08:46:29.610Z,99475.33
2022-08-27T08:47:47.136Z,99474.98
2022-08-27T08:48:52.983Z,99466.13
2022-08-27T08:50:19.708Z,99472.83
2022-08-27T08:51:36.177Z,99476.69
2022-08-27T08:52:41.947Z,99478.63
2022-08-27T08:53:50.505Z,99476.92
2022-08-27T08:55:08.596Z,99473.72
2022-08-27T08:56:21.197Z,99482.54
2022-08-27T08:57:30.132Z,99472.88
2022-08-27T08:58:41.575Z,99481.16
2022-08-27T08:59:47.428Z,99477.97
2022-08-27T09:00:56.055Z,99471.81
2022-08-27T09:01:58.906Z,99475.42
2022-08-27T09:03:01.266Z,99472.34
2022-08-27T09:04:06.953Z,99480.34
2022-08-27T09:05:09.621Z,99480.16
2022-08-27T09:06:33.036Z,99482.67
2022-08-27T09:07:42.005Z,99479.75
2022-08-27T09:08:45.645Z,99482.70
2022-08-27T09:09:57.754Z,99479.75
2022-08-27T09:11:07.454Z,99476.43
2022-08-27T09:12:16.220Z,99473.58
2022-08-27T09:14:47.544Z,99470.31
2022-08-27T09:15:53.168Z,99479.75
2022-08-27T09:17:00.767Z,99481.10
2022-08-27T09:18:06.902Z,99473.86
2022-08-27T09:19:13.102Z,99474.52
2022-08-27T09:20:20.311Z,99476.64
2022-08-27T09:21:44.802Z,99472.97
2022-08-27T09:23:05.105Z,99475.45
2022-08-27T09:24:16.868Z,99475.20
2022-08-27T09:25:34.401Z,99473.84
2022-08-27T09:26:40.343Z,99469.79
2022-08-27T09:27:43.014Z,99467.94
2022-08-27T09:28:45.264Z,99468.90
2022-08-27T09:29:55.714Z,99473.69
2022-08-27T09:31:10.803Z,99471.02
2022-08-27T09:32:13.564Z,99463.67
2022-08-27T09:33:15.669Z,99471.30
2022-08-27T09:34:17.863Z,99471.14
2022-08-27T09:35:20.736Z,99464.22
2022-08-27T09:36:24.339Z,99468.39
2022-08-27T09:37:34.152Z,99463.12
2022-08-27T09:38:38.777Z,99460.37
2022-08-27T09:39:51.545Z,99467.44
2022-08-27T09:40:57.637Z,99465.70
2022-08-27T09:42:03.272Z,99470.59
2022-08-27T09:43:18.128Z,99460.83
2022-08-27T09:44:20.508Z,99470.30
2022-08-27T09:45:25.937Z,99469.92
2022-08-27T09:46:29.432Z,99470.77
2022-08-27T09:47:44.171Z,99473.33
2022-08-27T09:48:46.635Z,99474.07
2022-08-27T09:50:00.894Z,99478.13
2022-08-27T09:51:11.720Z,99471.68
2022-08-27T09:52:37.682Z,99475.81
2022-08-27T09:53:50.193Z,99476.12
2022-08-27T09:54:53.633Z,99473.17
2022-08-27T09:56:02.140Z,99477.22
2022-08-27T09:57:09.011Z,99475.46
2022-08-27T09:58:27.351Z,99476.77
2022-08-27T09:59:33.191Z,99470.93
2022-08-27T10:00:39.032Z,99467.51
2022-08-27T10:02:16.728Z,99465.48
2022-08-27T10:03:21.026Z,99468.16
2022-08-27T10:04:29.209Z,99458.63
2022-08-27T10:06:55.858Z,99462.59
2022-08-27T10:08:04.517Z,99464.64
2022-08-27T10:09:27.110Z,99462.59
2022-08-27T10:10:40.775Z,99466.02
2022-08-27T10:11:52.640Z,99466.06
2022-08-27T10:13:16.397Z,99467.84
2022-08-27T10:14:34.531Z,99463.91
2022-08-27T10:15:47.686Z,99466.06
2022-08-27T10:16:53.845Z,99462.78
2022-08-27T10:18:15.112Z,99466.27
2022-08-27T10:19:29.742Z,99470.16
2022-08-27T10:20:48.693Z,99461.23
2022-08-27T10:21:57.865Z,99458.28
2022-08-27T10:23:09.805Z,99465.77
2022-08-27T10:24:15.642Z,99469.45
2022-08-27T10:25:52.215Z,99459.30
2022-08-27T10:27:07.468Z,99463.91
2022-08-27T10:28:28.688Z,99470.52
2022-08-27T10:29:34.480Z,99468.98
2022-08-27T10:31:03.417Z,99461.03
2022-08-27T10:34:12.358Z,99471.27
2022-08-27T10:35:21.042Z,99468.36
2022-08-27T10:36:48.597Z,99463.89
2022-08-27T10:38:05.291Z,99459.22
2022-08-27T10:40:37.204Z,99446.40
2022-08-27T10:41:52.118Z,99462.33
2022-08-27T10:42:58.075Z,99454.23
2022-08-27T10:44:25.200Z,99456.20
2022-08-27T10:45:34.437Z,99458.64
2022-08-27T10:47:02.187Z,99458.91
2022-08-27T10:48:09.147Z,99454.98
2022-08-27T10:49:20.862Z,99460.16
2022-08-27T10:50:31.586Z,99461.89
2022-08-27T10:51:55.873Z,99456.20
2022-08-27T10:53:20.036Z,99458.79
2022-08-27T10:54:29.155Z,99459.72
2022-08-27T10:55:38.285Z,99464.51
2022-08-27T10:57:22.884Z,99457.11
2022-08-27T10:58:16.802Z,99460.83
2022-08-27T10:59:42.918Z,99456.11
2022-08-27T11:00:58.250Z,99464.28
2022-08-27T11:02:16.443Z,99463.44
2022-08-27T11:03:22.949Z,99457.49
2022-08-27T11:04:34.551Z,99459.15
2022-08-27T11:05:49.509Z,99465.95
2022-08-27T11:07:04.671Z,99459.15
2022-08-27T11:08:19.420Z,99459.79
2022-08-27T11:09:37.860Z,99462.47
2022-08-27T11:10:47.391Z,99462.64
2022-08-27T11:13:01.844Z,99462.63
2022-08-27T11:14:10.693Z,99471.67
2022-08-27T11:15:28.184Z,99462.20
2022-08-27T11:16:45.572Z,99461.45
2022-08-27T11:17:58.126Z,99454.88
2022-08-27T11:19:05.066Z,99449.57
2022-08-27T11:20:23.089Z,99453.31
2022-08-27T11:21:29.977Z,99452.93
2022-08-27T11:22:39.842Z,99458.28
2022-08-27T11:23:51.642Z,99452.55
2022-08-27T11:25:15.565Z,99451.95
2022-08-27T11:26:19.956Z,99449.31
2022-08-27T11:27:25.594Z,99448.72
2022-08-27T11:28:36.867Z,99454.11
2022-08-27T11:29:48.581Z,99451.69
2022-08-27T11:31:04.644Z,99454.50
2022-08-27T11:32:22.763Z,99451.85
2022-08-27T11:33:46.631Z,99443.23
2022-08-27T11:34:56.204Z,99444.45
2022-08-27T11:36:19.309Z,99450.66
2022-08-27T11:37:37.340Z,99446.95
2022-08-27T11:39:07.053Z,99445.10
2022-08-27T11:40:13.433Z,99454.39
2022-08-27T11:41:45.355Z,99449.87
2022-08-27T11:42:50.577Z,99454.80
2022-08-27T11:43:54.317Z,99445.31
2022-08-27T11:45:00.219Z,99446.55
2022-08-27T11:46:06.265Z,99440.77
2022-08-27T11:47:12.694Z,99445.71
2022-08-27T11:48:21.945Z,99444.50
2022-08-27T11:51:10.192Z,99441.20
2022-08-27T11:52:14.912Z,99443.27
2022-08-27T11:53:20.750Z,99444.91
2022-08-27T11:54:29.254Z,99454.00
2022-08-27T11:55:40.184Z,99445.34
2022-08-27T11:56:43.605Z,99447.78
2022-08-27T11:57:53.239Z,99443.66
2022-08-27T11:58:56.981Z,99447.78
2022-08-27T12:00:02.684Z,99443.90
2022-08-27T12:01:16.013Z,99441.22
2022-08-27T12:02:24.844Z,99440.78
2022-08-27T12:03:32.843Z,99439.13
2022-08-27T12:04:39.799Z,99438.11
2022-08-27T12:05:51.565Z,99437.89
2022-08-27T12:07:03.142Z,99443.69
2022-08-27T12:08:20.318Z,99435.83
2022-08-27T12:09:23.225Z,99433.52
2022-08-27T12:10:55.277Z,99430.84
2022-08-27T12:12:11.231Z,99429.41
2022-08-27T12:13:32.362Z,99432.11
2022-08-27T12:14:45.004Z,99423.44
2022-08-27T12:16:12.976Z,99425.47
2022-08-27T12:17:35.765Z,99426.50
2022-08-27T12:18:44.375Z,99423.77
2022-08-27T12:20:08.596Z,99421.06
2022-08-27T12:21:26.781Z,99420.63
2022-08-27T12:23:06.210Z,99422.68
2022-08-27T12:24:30.102Z,99421.64
2022-08-27T12:25:32.445Z,99416.26
2022-08-27T12:26:38.757Z,99410.61
2022-08-27T12:27:41.062Z,99414.53
2022-08-27T12:28:44.448Z,99413.19
2022-08-27T12:29:50.394Z,99414.68
2022-08-27T12:30:53.575Z,99414.68
2022-08-27T12:32:04.157Z,99411.75
2022-08-27T12:33:16.936Z,99409.64
2022-08-27T12:34:22.877Z,99412.48
2022-08-27T12:35:44.700Z,99411.77
2022-08-27T12:36:53.473Z,99404.70
2022-08-27T12:38:03.414Z,99418.44
2022-08-27T12:39:13.186Z,99407.91
2022-08-27T12:40:27.749Z,99405.64
2022-08-27T12:41:43.519Z,99404.44
2022-08-27T12:42:39.937Z,99406.15
2022-08-27T12:43:43.056Z,99401.59
2022-08-27T12:44:45.379Z,99410.21
2022-08-27T12:46:03.176Z,99408.11
2022-08-27T12:47:09.096Z,99399.94
2022-08-27T12:48:11.973Z,99407.30
2022-08-27T12:49:39.024Z,99401.66
2022-08-27T12:50:26.277Z,99412.16
2022-08-27T12:51:36.549Z,99411.27
2022-08-27T12:53:03.447Z,99408.90
2022-08-27T12:54:12.901Z,99399.55
2022-08-27T12:55:21.799Z,99399.09
2022-08-27T12:58:16.029Z,99394.05
2022-08-27T12:59:27.982Z,99385.82
2022-08-27T13:00:35.308Z,99393.03
2022-08-27T13:01:50.636Z,99389.02
2022-08-27T13:03:12.931Z,99393.13
2022-08-27T13:04:23.998Z,99392.60
2022-08-27T13:05:26.131Z,99390.05
2022-08-27T13:06:31.691Z,99373.45
2022-08-27T13:07:37.809Z,99381.17
2022-08-27T13:08:40.719Z,99380.72
2022-08-27T13:09:42.931Z,99385.81
2022-08-27T13:10:45.146Z,99386.98
2022-08-27T13:11:50.066Z,99392.25
2022-08-27T13:13:10.529Z,99390.95
2022-08-27T13:14:16.800Z,99395.02
2022-08-27T13:15:19.332Z,99397.39